Time;durP1;ratioP1;P1;durP2;ratioP2;P2;SDS_P1;SDS_P2;PMS_P1;PMS_P2;Temp;Humidity;BMP_temperature;BMP_pressure;BME280_temperature;BME280_humidity;BME280_pressure;Samples;Min_cycle;Max_cycle;Signal;HPM_P1;HPM_P2
2021/12/31 00:00:38;;;;;;;1.35;0.88;;;13.20;99.90;;;14.14;100.00;-20208.16;5012374;28;20310;-67
2021/12/31 00:03:06;;;;;;;1.35;1.00;;;13.20;99.90;;;14.12;100.00;-20207.47;5011733;28;20228;-67
2021/12/31 00:05:36;;;;;;;1.35;1.00;;;13.30;99.90;;;14.30;100.00;-20213.63;5012189;28;20281;-63
2021/12/31 00:08:05;;;;;;;1.58;1.08;;;13.30;99.90;;;14.23;100.00;-20211.06;5011162;28;20223;-62
2021/12/31 00:10:33;;;;;;;1.08;0.90;;;13.30;99.90;;;14.34;100.00;-20214.84;5012038;28;20201;-62
2021/12/31 00:13:02;;;;;;;1.00;0.90;;;13.30;99.90;;;14.27;100.00;-20212.63;5011747;28;20313;-62
2021/12/31 00:15:30;;;;;;;1.48;1.02;;;13.30;99.90;;;14.39;100.00;-20216.53;5002979;28;20226;-62
2021/12/31 00:17:58;;;;;;;1.10;0.90;;;13.30;99.90;;;14.09;100.00;-20206.28;5010733;28;20240;-63
2021/12/31 00:20:27;;;;;;;1.33;0.95;;;13.20;99.90;;;14.13;100.00;-20207.84;5009441;28;20290;-62
2021/12/31 00:23:05;;;;;;;1.70;0.80;;;13.20;99.90;;;14.07;100.00;-20205.78;5010069;28;20310;-63
2021/12/31 00:25:36;;;;;;;0.90;0.90;;;13.20;99.90;;;14.12;100.00;-20207.31;5008224;28;20333;-62
2021/12/31 00:28:05;;;;;;;0.85;0.82;;;13.10;99.90;;;14.05;100.00;-20204.94;5008357;28;20346;-62
2021/12/31 00:30:34;;;;;;;1.15;0.90;;;13.20;99.90;;;13.87;100.00;-20198.94;5008740;28;20258;-63
2021/12/31 00:33:03;;;;;;;1.20;0.98;;;13.10;99.90;;;13.97;100.00;-20202.19;5008880;28;20313;-63
2021/12/31 00:35:33;;;;;;;0.77;0.77;;;13.10;99.90;;;13.94;100.00;-20201.34;5008890;28;20254;-64
2021/12/31 00:38:03;;;;;;;0.90;0.82;;;13.10;99.90;;;14.05;100.00;-20204.94;5008946;28;20286;-64
2021/12/31 00:40:31;;;;;;;0.90;0.88;;;13.10;99.90;;;13.95;100.00;-20201.69;5009512;28;20257;-62
2021/12/31 00:43:00;;;;;;;0.85;0.70;;;13.00;99.90;;;14.05;100.00;-20205.09;5008975;28;20329;-64
2021/12/31 00:45:28;;;;;;;1.90;1.00;;;13.10;99.90;;;14.00;100.00;-20203.41;5008395;28;20642;-63
2021/12/31 00:47:57;;;;;;;1.20;0.93;;;13.00;99.90;;;13.89;100.00;-20199.63;5008421;28;20262;-64
2021/12/31 00:50:25;;;;;;;0.95;0.90;;;13.00;99.90;;;14.00;100.00;-20203.41;5008419;28;20288;-64
2021/12/31 00:52:53;;;;;;;2.30;1.05;;;13.10;99.90;;;14.11;100.00;-20206.97;5009219;28;20277;-64
2021/12/31 00:55:23;;;;;;;1.13;0.82;;;13.10;99.90;;;14.14;100.00;-20208.16;5007577;28;20233;-63
2021/12/31 00:57:51;;;;;;;1.75;1.10;;;13.20;99.90;;;14.02;100.00;-20203.91;5007704;28;20234;-63
2021/12/31 01:00:21;;;;;;;0.82;0.80;;;13.10;99.90;;;14.13;100.00;-20207.66;5010452;28;20218;-63
2021/12/31 01:02:50;;;;;;;1.83;0.98;;;13.10;99.90;;;14.13;100.00;-20207.84;5010879;28;20309;-62
2021/12/31 01:05:18;;;;;;;2.38;1.20;;;13.10;99.90;;;14.22;100.00;-20210.91;5011332;28;20230;-64
2021/12/31 01:07:47;;;;;;;1.23;1.02;;;13.20;99.90;;;14.06;100.00;-20205.44;5011255;28;20348;-63
2021/12/31 01:10:18;;;;;;;1.20;1.10;;;13.10;99.90;;;13.93;100.00;-20201.00;4996083;28;20674;-63
2021/12/31 01:12:49;;;;;;;1.00;0.90;;;13.10;99.90;;;14.01;100.00;-20203.56;5011341;28;20305;-62
2021/12/31 01:15:33;;;;;;;1.42;1.05;;;13.10;99.90;;;14.08;100.00;-20205.94;5010983;28;20691;-63
2021/12/31 01:18:19;;;;;;;1.05;0.95;;;13.10;99.90;;;14.07;100.00;-20205.63;5011153;28;20331;-62
2021/12/31 01:20:47;;;;;;;1.50;1.20;;;13.10;99.90;;;14.07;100.00;-20205.78;5011635;28;20665;-64
2021/12/31 01:23:17;;;;;;;2.13;1.30;;;13.10;99.90;;;14.07;100.00;-20205.78;5011543;28;20285;-62
2021/12/31 01:25:45;;;;;;;2.67;1.13;;;13.10;99.90;;;14.06;100.00;-20205.28;5011523;28;20286;-63
2021/12/31 01:28:15;;;;;;;1.85;1.30;;;13.10;99.90;;;14.08;100.00;-20205.94;5010638;28;20285;-63
2021/12/31 01:30:43;;;;;;;1.30;1.20;;;13.20;99.90;;;14.07;100.00;-20205.63;5011119;28;20221;-63
2021/12/31 01:33:11;;;;;;;2.00;1.23;;;13.20;99.90;;;13.95;100.00;-20201.69;5010635;28;20227;-63
2021/12/31 01:35:39;;;;;;;1.33;1.23;;;13.10;99.90;;;13.99;100.00;-20202.88;5010268;28;20325;-62
2021/12/31 01:38:07;;;;;;;2.05;1.15;;;13.10;99.90;;;13.95;100.00;-20201.50;5009467;28;20297;-62
2021/12/31 01:40:35;;;;;;;1.60;1.27;;;13.00;99.90;;;13.99;100.00;-20202.88;5017693;28;20285;-62
2021/12/31 01:43:04;;;;;;;1.33;1.20;;;13.00;99.90;;;14.00;100.00;-20203.41;5019619;28;20330;-62
2021/12/31 01:45:42;;;;;;;1.15;1.00;;;13.10;99.90;;;14.04;100.00;-20204.75;5024345;28;20320;-62
2021/12/31 01:48:23;;;;;;;1.13;0.90;;;13.10;99.90;;;13.99;100.00;-20202.88;4993933;28;20233;-62
2021/12/31 01:50:52;;;;;;;2.97;1.10;;;13.00;99.90;;;14.02;100.00;-20203.91;5010294;28;20317;-62
2021/12/31 01:53:23;;;;;;;1.02;0.90;;;13.00;99.90;;;13.98;100.00;-20202.53;4974170;28;1047954;-62
2021/12/31 01:55:53;;;;;;;1.67;1.17;;;13.00;99.90;;;13.85;100.00;-20198.28;5012003;28;20345;-62
2021/12/31 01:58:25;;;;;;;1.08;0.98;;;13.00;99.90;;;14.02;100.00;-20204.06;5025242;28;20229;-62
2021/12/31 02:00:55;;;;;;;1.10;1.00;;;13.00;99.90;;;13.88;100.00;-20199.13;5011398;28;20222;-62
2021/12/31 02:03:25;;;;;;;1.05;0.95;;;13.00;99.90;;;13.67;100.00;-20191.94;5011172;28;20750;-62
2021/12/31 02:05:54;;;;;;;1.63;0.90;;;12.90;99.90;;;13.62;100.00;-20190.41;4998053;28;20222;-62
2021/12/31 02:08:22;;;;;;;1.02;0.93;;;12.80;99.90;;;13.60;100.00;-20189.56;5011003;28;20277;-62
2021/12/31 02:10:51;;;;;;;1.25;1.00;;;12.80;99.90;;;13.40;100.00;-20182.91;5011434;28;20229;-62
2021/12/31 02:13:21;;;;;;;1.02;0.80;;;12.70;99.90;;;13.33;100.00;-20180.69;5010983;28;20231;-63
2021/12/31 02:15:50;;;;;;;1.27;0.90;;;12.60;99.90;;;13.25;100.00;-20177.78;5010219;28;20231;-63
2021/12/31 02:18:20;;;;;;;1.33;1.00;;;12.60;99.90;;;13.31;100.00;-20180.00;5010526;28;20305;-62
2021/12/31 02:20:49;;;;;;;1.58;0.98;;;12.50;99.90;;;13.37;100.00;-20182.06;5011439;28;20500;-63
2021/12/31 02:23:20;;;;;;;1.02;0.80;;;12.60;99.90;;;13.34;100.00;-20181.03;5011132;28;20234;-62
2021/12/31 02:25:48;;;;;;;1.57;0.90;;;12.60;99.90;;;13.30;100.00;-20179.66;5011441;28;20302;-61
2021/12/31 02:28:16;;;;;;;2.08;1.15;;;12.50;99.90;;;13.15;100.00;-20174.38;5009808;28;20601;-62
2021/12/31 02:30:45;;;;;;;1.53;1.10;;;12.50;99.90;;;13.21;100.00;-20176.41;5010395;28;20219;-62
2021/12/31 02:33:13;;;;;;;2.20;1.30;;;12.40;99.90;;;13.13;100.00;-20173.88;5016449;28;20312;-63
2021/12/31 02:35:42;;;;;;;1.67;1.57;;;12.40;99.90;;;13.21;100.00;-20176.59;5014960;28;20305;-62
2021/12/31 02:38:11;;;;;;;1.48;1.10;;;12.40;99.90;;;13.30;100.00;-20179.50;5010517;28;20281;-63
2021/12/31 02:40:39;;;;;;;1.57;1.40;;;12.40;99.90;;;13.20;100.00;-20176.25;5011545;28;20238;-61
2021/12/31 02:43:07;;;;;;;2.97;1.35;;;12.40;99.90;;;13.18;100.00;-20175.41;5010809;28;20227;-61
2021/12/31 02:45:37;;;;;;;1.55;1.42;;;12.40;99.90;;;13.25;100.00;-20177.78;5010684;28;20226;-62
2021/12/31 02:48:06;;;;;;;1.50;1.40;;;12.40;99.90;;;13.16;100.00;-20174.88;5010281;28;20230;-63
2021/12/31 02:50:39;;;;;;;1.98;1.40;;;12.40;99.90;;;13.21;100.00;-20176.41;5010488;28;20226;-62
2021/12/31 02:53:12;;;;;;;2.78;1.48;;;12.40;99.90;;;13.21;100.00;-20176.41;5002228;28;20227;-63
2021/12/31 02:55:44;;;;;;;2.27;1.73;;;12.40;99.90;;;13.12;100.00;-20173.53;5011355;28;20223;-62
2021/12/31 02:58:13;;;;;;;2.00;1.90;;;12.40;99.90;;;12.96;100.00;-20168.06;5009938;28;20230;-61
2021/12/31 03:00:44;;;;;;;1.92;1.70;;;12.30;99.90;;;12.85;100.00;-20164.31;5010250;28;20218;-62
2021/12/31 03:03:15;;;;;;;1.85;1.75;;;12.20;99.90;;;13.05;100.00;-20170.97;5002365;28;20244;-62
2021/12/31 03:05:45;;;;;;;1.77;1.67;;;12.30;99.90;;;12.92;100.00;-20166.69;5010091;28;20726;-63
2021/12/31 03:08:18;;;;;;;2.70;2.03;;;12.20;99.90;;;12.89;100.00;-20165.66;5003474;28;20199;-62
2021/12/31 03:10:48;;;;;;;2.72;1.80;;;12.20;99.90;;;13.09;100.00;-20172.31;5010641;28;20318;-63
2021/12/31 03:13:17;;;;;;;3.00;1.93;;;12.20;99.90;;;12.95;100.00;-20167.72;5002830;28;20291;-62
2021/12/31 03:15:47;;;;;;;2.53;1.77;;;12.20;99.90;;;13.13;100.00;-20173.69;5010291;28;20234;-61
2021/12/31 03:18:17;;;;;;;2.70;1.97;;;12.20;99.90;;;13.28;100.00;-20178.97;5009427;28;20988;-62
2021/12/31 03:20:57;;;;;;;2.13;1.95;;;12.30;99.90;;;13.26;100.00;-20178.13;5010309;28;20317;-63
2021/12/31 03:23:28;;;;;;;2.30;1.95;;;12.40;99.90;;;13.28;100.00;-20178.97;5003438;28;20310;-61
2021/12/31 03:25:56;;;;;;;2.20;2.00;;;12.40;99.90;;;13.39;100.00;-20182.56;5010405;28;20274;-62
2021/12/31 03:28:25;;;;;;;2.78;1.70;;;12.40;99.90;;;13.40;100.00;-20182.91;5009674;28;20226;-62
2021/12/31 03:30:54;;;;;;;1.80;1.70;;;12.40;99.90;;;13.50;100.00;-20186.31;5009704;28;20266;-61
2021/12/31 03:33:23;;;;;;;2.65;1.70;;;12.50;99.90;;;13.53;100.00;-20187.19;5009727;28;20226;-61
2021/12/31 03:35:52;;;;;;;2.85;1.65;;;12.50;99.90;;;13.59;100.00;-20189.41;5010066;28;20226;-62
2021/12/31 03:38:20;;;;;;;2.08;1.40;;;12.60;99.90;;;13.52;100.00;-20186.84;5009793;28;20317;-63
2021/12/31 03:40:50;;;;;;;1.95;1.65;;;12.60;99.90;;;13.46;100.00;-20184.97;5010783;28;20289;-64
2021/12/31 03:43:18;;;;;;;2.70;1.42;;;12.60;99.90;;;13.49;100.00;-20185.97;5009251;28;20222;-63
2021/12/31 03:45:46;;;;;;;1.40;1.27;;;12.50;99.90;;;13.36;100.00;-20181.53;5009249;28;20313;-62
2021/12/31 03:48:15;;;;;;;1.63;1.53;;;12.50;99.90;;;13.39;100.00;-20182.75;5008433;28;20694;-62
2021/12/31 03:50:43;;;;;;;1.98;1.10;;;12.50;99.90;;;13.39;100.00;-20182.75;5009224;28;20396;-62
2021/12/31 03:53:11;;;;;;;2.50;1.50;;;12.50;99.90;;;13.44;100.00;-20184.28;5009714;28;20239;-62
2021/12/31 03:55:39;;;;;;;1.58;1.48;;;12.50;99.90;;;13.30;100.00;-20179.50;5009960;28;20225;-63
2021/12/31 03:58:08;;;;;;;2.22;1.38;;;12.50;99.90;;;13.42;100.00;-20183.75;5005635;28;20694;-62
2021/12/31 04:00:36;;;;;;;1.20;1.10;;;12.60;99.90;;;13.63;100.00;-20190.59;5009748;28;20219;-62
2021/12/31 04:03:09;;;;;;;2.20;1.43;;;12.60;99.90;;;13.84;100.00;-20197.94;5009492;28;20234;-62
2021/12/31 04:05:41;;;;;;;1.60;1.20;;;12.80;99.90;;;13.85;100.00;-20198.09;5008879;28;20683;-62
2021/12/31 04:08:10;;;;;;;1.40;1.30;;;12.80;99.90;;;13.80;100.00;-20196.56;5008481;28;20646;-63
2021/12/31 04:10:38;;;;;;;1.50;1.38;;;12.90;99.90;;;13.68;100.00;-20192.31;5009490;28;20218;-61
2021/12/31 04:13:07;;;;;;;2.00;1.80;;;12.90;99.90;;;13.68;100.00;-20192.47;5008905;28;20317;-62
2021/12/31 04:15:36;;;;;;;1.88;1.77;;;12.80;99.90;;;13.67;100.00;-20192.13;5003707;28;20710;-61
2021/12/31 04:18:04;;;;;;;2.03;1.70;;;12.80;99.90;;;13.51;100.00;-20186.50;5008403;28;20365;-63
2021/12/31 04:20:38;;;;;;;3.05;1.70;;;12.80;99.90;;;13.31;100.00;-20180.00;5008961;28;20262;-62
2021/12/31 04:23:14;;;;;;;1.90;1.65;;;12.70;99.90;;;13.37;100.00;-20181.88;5009310;28;20195;-62
2021/12/31 04:25:42;;;;;;;1.75;1.65;;;12.60;99.90;;;13.12;100.00;-20173.34;5009351;28;20631;-62
2021/12/31 04:28:12;;;;;;;1.60;1.50;;;12.50;99.90;;;12.88;100.00;-20165.16;4992276;28;20225;-61
2021/12/31 04:30:40;;;;;;;1.52;1.42;;;12.30;99.90;;;12.87;100.00;-20164.81;5008720;28;20400;-62
2021/12/31 04:33:08;;;;;;;2.27;1.90;;;12.30;99.90;;;12.99;100.00;-20169.06;5008558;28;20785;-61
2021/12/31 04:35:36;;;;;;;2.07;1.70;;;12.20;99.90;;;12.83;100.00;-20163.63;5008962;28;20233;-62
2021/12/31 04:38:04;;;;;;;2.60;1.80;;;12.20;99.90;;;12.92;100.00;-20166.53;5008597;28;20212;-62
2021/12/31 04:40:32;;;;;;;2.38;1.98;;;12.10;99.90;;;12.76;100.00;-20161.06;5009328;28;20246;-62
2021/12/31 04:43:00;;;;;;;2.72;2.28;;;12.10;99.90;;;12.96;100.00;-20168.06;5008614;28;20370;-62
2021/12/31 04:45:30;;;;;;;3.10;2.07;;;12.10;99.90;;;12.78;100.00;-20161.72;5008336;28;20313;-61
2021/12/31 04:47:58;;;;;;;2.60;1.90;;;12.10;99.90;;;12.79;100.00;-20162.25;5008397;28;20264;-62
2021/12/31 04:50:26;;;;;;;1.70;1.60;;;12.10;99.90;;;12.84;100.00;-20163.78;5008293;28;20236;-62
2021/12/31 04:52:54;;;;;;;1.80;1.70;;;12.10;99.90;;;12.99;100.00;-20168.91;4998855;28;20204;-62
2021/12/31 04:55:22;;;;;;;1.87;1.40;;;12.10;99.90;;;12.93;100.00;-20167.03;5002362;28;20304;-62
2021/12/31 04:57:52;;;;;;;1.85;1.30;;;12.20;99.90;;;12.85;100.00;-20164.31;5008144;28;20698;-62
2021/12/31 05:00:20;;;;;;;1.13;1.02;;;12.20;99.90;;;12.99;100.00;-20168.91;5008174;28;20722;-62
2021/12/31 05:02:49;;;;;;;1.00;0.90;;;12.30;99.90;;;13.01;100.00;-20169.59;5008288;28;20284;-61
2021/12/31 05:05:17;;;;;;;1.77;0.90;;;12.30;99.90;;;13.17;100.00;-20175.22;5008526;28;20258;-63
2021/12/31 05:07:45;;;;;;;1.75;0.73;;;12.30;99.90;;;13.22;100.00;-20176.94;5008851;28;20322;-62
2021/12/31 05:10:14;;;;;;;2.28;0.90;;;12.40;99.90;;;13.51;100.00;-20186.50;5008001;28;20777;-61
2021/12/31 05:12:43;;;;;;;1.70;1.00;;;12.50;99.90;;;13.46;100.00;-20184.97;5008325;28;20722;-62
2021/12/31 05:15:11;;;;;;;2.25;1.00;;;12.50;99.90;;;13.51;100.00;-20186.66;5008157;28;20313;-62
2021/12/31 05:18:15;;;;;;;0.73;0.73;;;12.60;99.90;;;13.48;100.00;-20185.81;5006297;28;20903;-62
2021/12/31 05:20:43;;;;;;;0.75;0.70;;;12.60;99.90;;;13.63;100.00;-20190.75;5003494;28;20312;-61
2021/12/31 05:23:11;;;;;;;0.70;0.70;;;12.60;99.90;;;13.49;100.00;-20185.97;5009605;28;20203;-61
2021/12/31 05:25:39;;;;;;;0.82;0.65;;;12.60;99.90;;;13.43;100.00;-20184.09;5010269;28;20197;-62
2021/12/31 05:28:07;;;;;;;1.07;0.70;;;12.60;99.90;;;13.62;100.00;-20190.25;5010161;28;20246;-61
2021/12/31 05:30:35;;;;;;;0.68;0.68;;;12.60;99.90;;;13.53;100.00;-20187.19;5010016;28;20250;-62
2021/12/31 05:33:04;;;;;;;1.08;0.70;;;12.60;99.90;;;13.43;100.00;-20184.09;5011634;28;20312;-62
2021/12/31 05:35:34;;;;;;;1.33;0.70;;;12.60;99.90;;;13.49;100.00;-20185.97;5011384;28;20337;-63
2021/12/31 05:38:02;;;;;;;2.78;0.73;;;12.60;99.90;;;13.47;100.00;-20185.31;5011584;28;20245;-62
2021/12/31 05:40:30;;;;;;;0.70;0.63;;;12.60;99.90;;;13.40;100.00;-20183.09;5012261;28;20199;-63
2021/12/31 05:42:58;;;;;;;0.80;0.70;;;12.60;99.90;;;13.40;100.00;-20183.09;5011430;28;20258;-62
2021/12/31 05:45:26;;;;;;;1.88;1.00;;;12.60;99.90;;;13.38;100.00;-20182.41;5012517;28;20317;-61
2021/12/31 05:48:01;;;;;;;1.48;1.10;;;12.60;99.90;;;13.42;100.00;-20183.75;5015121;28;20229;-63
2021/12/31 05:50:29;;;;;;;2.88;1.60;;;12.50;99.90;;;13.77;100.00;-20195.53;5015000;28;20397;-61
2021/12/31 05:53:00;;;;;;;1.90;1.35;;;12.70;99.90;;;13.74;100.00;-20194.50;5015295;28;20234;-61
2021/12/31 05:55:29;;;;;;;3.50;2.35;;;12.70;99.90;;;13.63;100.00;-20190.75;5014866;28;20607;-62
2021/12/31 05:57:58;;;;;;;6.57;3.90;;;12.70;99.90;;;13.66;100.00;-20191.63;5014498;28;20309;-61
2021/12/31 06:00:26;;;;;;;3.88;2.70;;;12.80;99.90;;;13.51;100.00;-20186.66;5014466;28;20228;-62
2021/12/31 06:02:56;;;;;;;3.42;2.83;;;12.70;99.90;;;13.43;100.00;-20184.09;5014742;28;20241;-62
2021/12/31 06:05:27;;;;;;;2.53;1.80;;;12.70;99.90;;;13.34;100.00;-20181.03;5014796;28;20229;-62
2021/12/31 06:07:57;;;;;;;2.58;1.90;;;12.70;99.90;;;13.63;100.00;-20190.75;5015147;28;20187;-62
2021/12/31 06:10:27;;;;;;;3.60;2.80;;;12.70;99.90;;;13.76;100.00;-20195.19;5014206;28;20241;-63
2021/12/31 06:12:59;;;;;;;5.55;3.40;;;12.70;99.90;;;13.65;100.00;-20191.28;5024153;28;20217;-63
2021/12/31 06:15:29;;;;;;;4.30;2.00;;;12.70;99.90;;;13.70;100.00;-20192.97;5015547;28;20265;-62
2021/12/31 06:17:57;;;;;;;3.22;1.90;;;12.70;99.90;;;13.68;100.00;-20192.47;5014451;28;20222;-62
2021/12/31 06:20:28;;;;;;;5.68;4.03;;;12.80;99.90;;;13.48;100.00;-20185.81;5014543;28;20309;-62
2021/12/31 06:22:57;;;;;;;6.57;3.70;;;12.70;99.90;;;13.57;100.00;-20188.72;5015200;28;20211;-62
2021/12/31 06:25:28;;;;;;;2.88;2.17;;;12.70;99.90;;;13.62;100.00;-20190.25;5014497;28;20298;-61
2021/12/31 06:27:56;;;;;;;3.00;2.30;;;12.70;99.90;;;13.55;100.00;-20188.03;5014044;28;20280;-61
2021/12/31 06:30:25;;;;;;;2.47;2.03;;;12.70;99.90;;;13.63;100.00;-20190.59;5014037;28;20692;-61
2021/12/31 06:32:53;;;;;;;2.55;1.70;;;12.70;99.90;;;13.62;100.00;-20190.25;5014182;28;20305;-61
2021/12/31 06:35:21;;;;;;;1.55;1.10;;;12.70;99.90;;;13.59;100.00;-20189.22;5014443;28;20223;-61
2021/12/31 06:37:52;;;;;;;2.45;1.17;;;12.70;99.90;;;13.89;100.00;-20199.47;5014646;28;20203;-62
2021/12/31 06:40:23;;;;;;;1.50;1.40;;;12.80;99.90;;;13.74;100.00;-20194.34;5014516;28;20207;-62
2021/12/31 06:42:53;;;;;;;2.10;1.20;;;12.80;99.90;;;13.65;100.00;-20191.28;5013943;28;20309;-62
2021/12/31 06:45:21;;;;;;;1.50;1.38;;;12.80;99.90;;;13.69;100.00;-20192.81;5013662;28;20326;-62
2021/12/31 06:47:49;;;;;;;2.28;1.60;;;12.70;99.90;;;13.66;100.00;-20191.78;5014075;28;20219;-62
2021/12/31 06:50:17;;;;;;;2.05;1.52;;;12.70;99.90;;;13.83;100.00;-20197.59;5014107;28;20334;-62
2021/12/31 06:52:46;;;;;;;3.10;1.67;;;12.80;99.90;;;13.81;100.00;-20196.72;5014247;28;20311;-62
2021/12/31 06:55:14;;;;;;;1.40;1.30;;;12.80;99.90;;;13.76;100.00;-20195.19;4974921;28;20228;-62
2021/12/31 06:57:42;;;;;;;2.03;1.42;;;12.80;99.90;;;13.77;100.00;-20195.38;4973860;28;20310;-61
2021/12/31 07:00:13;;;;;;;1.75;1.48;;;12.90;99.90;;;13.70;100.00;-20192.97;4974831;28;20752;-61
2021/12/31 07:02:41;;;;;;;3.25;1.70;;;12.80;99.90;;;13.77;100.00;-20195.38;4974919;28;20231;-62
2021/12/31 07:05:10;;;;;;;2.20;2.00;;;12.80;99.90;;;13.88;100.00;-20199.13;4974903;28;20211;-61
2021/12/31 07:07:38;;;;;;;3.92;2.28;;;12.90;99.90;;;13.82;100.00;-20197.09;4975207;28;20204;-61
2021/12/31 07:10:08;;;;;;;2.70;2.10;;;12.90;99.90;;;13.84;100.00;-20197.75;4974681;28;20293;-61
2021/12/31 07:12:36;;;;;;;1.75;1.30;;;12.90;99.90;;;13.86;100.00;-20198.63;4981399;28;20282;-63
2021/12/31 07:15:05;;;;;;;3.55;1.60;;;12.90;99.90;;;13.82;100.00;-20197.25;4978661;28;20270;-61
2021/12/31 07:17:35;;;;;;;3.35;2.10;;;12.90;99.90;;;13.83;100.00;-20197.41;4974398;28;20234;-60
2021/12/31 07:20:03;;;;;;;4.93;3.22;;;12.90;99.90;;;13.67;100.00;-20192.13;4974269;28;20200;-62
2021/12/31 07:22:34;;;;;;;2.03;1.80;;;12.80;99.90;;;13.53;100.00;-20187.34;4974017;28;20649;-60
2021/12/31 07:25:02;;;;;;;2.85;1.70;;;12.70;99.90;;;13.58;100.00;-20188.88;4974008;28;20245;-61
2021/12/31 07:27:32;;;;;;;2.80;1.70;;;12.80;99.90;;;13.58;100.00;-20189.06;4973998;28;20314;-61
2021/12/31 07:30:00;;;;;;;3.38;2.25;;;12.70;99.90;;;13.46;100.00;-20185.13;4974104;28;20223;-61
2021/12/31 07:32:28;;;;;;;3.72;2.25;;;12.70;99.90;;;13.45;100.00;-20184.63;4973832;28;20224;-61
2021/12/31 07:34:58;;;;;;;3.45;1.98;;;12.60;99.90;;;13.40;100.00;-20183.09;4974474;28;20239;-61
2021/12/31 07:37:26;;;;;;;3.00;2.22;;;12.60;99.90;;;13.32;100.00;-20180.19;4974200;28;20266;-61
2021/12/31 07:40:03;;;;;;;1.70;1.55;;;12.60;99.90;;;13.37;100.00;-20181.88;4973735;28;20260;-61
2021/12/31 07:42:31;;;;;;;2.50;1.58;;;12.50;99.90;;;13.58;100.00;-20189.06;4973406;28;20240;-62
2021/12/31 07:44:59;;;;;;;2.05;1.17;;;12.60;99.90;;;13.41;100.00;-20183.25;4974044;28;20314;-62
2021/12/31 07:47:27;;;;;;;1.42;1.15;;;12.60;99.90;;;13.46;100.00;-20185.13;4973634;28;20231;-61
2021/12/31 07:49:55;;;;;;;1.48;1.20;;;12.60;99.90;;;13.46;100.00;-20184.97;4974531;28;20286;-61
2021/12/31 07:52:24;;;;;;;1.15;1.05;;;12.60;99.90;;;13.54;100.00;-20187.50;4973673;28;20671;-61
2021/12/31 07:54:52;;;;;;;1.83;1.20;;;12.60;99.90;;;13.54;100.00;-20187.50;5006547;28;20222;-62
2021/12/31 07:57:20;;;;;;;2.45;2.25;;;12.70;99.90;;;13.54;100.00;-20187.50;5011265;28;20222;-61
2021/12/31 07:59:48;;;;;;;5.90;1.52;;;12.70;99.90;;;13.52;100.00;-20187.00;5011337;28;20624;-61
2021/12/31 08:02:16;;;;;;;1.77;1.40;;;12.70;99.90;;;13.81;100.00;-20196.72;5010877;28;20191;-62
2021/12/31 08:04:44;;;;;;;2.70;1.55;;;12.70;99.90;;;13.56;100.00;-20188.38;5011737;28;20195;-62
2021/12/31 08:07:12;;;;;;;2.55;1.52;;;12.70;99.90;;;13.48;100.00;-20185.81;5011240;28;20309;-61
2021/12/31 08:09:42;;;;;;;2.90;1.38;;;12.70;99.90;;;13.51;100.00;-20186.66;5010846;28;20219;-61
2021/12/31 08:12:10;;;;;;;1.35;1.13;;;12.70;99.90;;;13.79;100.00;-20196.22;5008598;28;20301;-61
2021/12/31 08:14:38;;;;;;;3.10;1.77;;;12.70;99.90;;;13.84;100.00;-20197.94;5010932;28;20670;-61
2021/12/31 08:17:06;;;;;;;1.50;1.40;;;12.80;99.90;;;13.84;100.00;-20197.75;5011078;28;20621;-61
2021/12/31 08:19:34;;;;;;;1.80;1.70;;;12.80;99.90;;;13.80;100.00;-20196.56;5011870;28;20281;-61
2021/12/31 08:22:02;;;;;;;4.25;2.83;;;12.90;99.90;;;13.86;100.00;-20198.63;5011016;28;20309;-61
2021/12/31 08:24:30;;;;;;;2.90;2.13;;;12.90;99.90;;;13.85;100.00;-20198.09;5008449;28;20223;-62
2021/12/31 08:26:59;;;;;;;4.20;3.00;;;12.90;99.90;;;13.97;100.00;-20202.38;5009952;28;20595;-63
2021/12/31 08:29:27;;;;;;;3.97;3.10;;;12.90;99.90;;;13.99;100.00;-20202.88;5011115;28;20302;-62
2021/12/31 08:31:55;;;;;;;2.22;1.73;;;13.00;99.90;;;14.09;100.00;-20206.47;5011408;28;20218;-60
2021/12/31 08:34:24;;;;;;;3.08;1.80;;;13.00;99.90;;;14.02;100.00;-20204.06;5011178;28;20539;-62
2021/12/31 08:36:52;;;;;;;2.13;1.58;;;13.10;99.90;;;14.22;100.00;-20210.91;5010600;28;20273;-62
2021/12/31 08:39:21;;;;;;;3.63;1.90;;;13.10;99.90;;;14.18;100.00;-20209.53;5010897;28;20325;-61
2021/12/31 08:41:49;;;;;;;4.50;3.50;;;13.20;99.90;;;14.23;100.00;-20211.06;4992529;28;20306;-62
2021/12/31 08:44:19;;;;;;;2.17;1.70;;;13.20;99.90;;;14.12;100.00;-20207.47;4993361;28;20356;-63
2021/12/31 08:46:48;;;;;;;3.78;1.42;;;13.20;99.90;;;14.13;100.00;-20207.84;5012322;28;20237;-62
2021/12/31 08:49:16;;;;;;;1.80;1.38;;;13.20;99.90;;;14.11;100.00;-20207.16;5011814;28;20226;-62
2021/12/31 08:51:44;;;;;;;1.60;1.10;;;13.20;99.90;;;14.14;100.00;-20208.16;5012013;28;20728;-62
2021/12/31 08:54:12;;;;;;;1.90;1.45;;;13.20;99.90;;;14.13;100.00;-20207.84;5011637;28;20325;-62
2021/12/31 08:56:43;;;;;;;1.63;1.30;;;13.20;99.90;;;14.39;100.00;-20216.53;5012135;28;20223;-62
2021/12/31 08:59:17;;;;;;;2.22;1.20;;;13.30;99.90;;;14.18;100.00;-20209.38;5011723;28;20182;-62
2021/12/31 09:01:47;;;;;;;2.08;1.88;;;13.30;99.90;;;14.13;100.00;-20207.66;5012227;28;20629;-62
2021/12/31 09:04:15;;;;;;;3.15;1.60;;;13.30;99.90;;;14.23;100.00;-20211.25;5011649;28;20269;-62
2021/12/31 09:06:43;;;;;;;3.05;2.00;;;13.30;99.90;;;14.29;100.00;-20213.28;5011595;28;20600;-62
2021/12/31 09:09:11;;;;;;;4.22;2.50;;;13.30;99.90;;;14.23;100.00;-20211.25;5011606;28;20227;-61
2021/12/31 09:11:40;;;;;;;2.40;2.08;;;13.30;99.90;;;14.25;100.00;-20211.75;5011847;28;20305;-62
2021/12/31 09:14:08;;;;;;;3.83;1.85;;;13.40;99.90;;;14.31;100.00;-20213.81;5022905;28;20313;-63
2021/12/31 09:16:36;;;;;;;3.15;2.10;;;13.40;99.90;;;14.26;100.00;-20212.09;5012195;28;20649;-62
2021/12/31 09:19:05;;;;;;;6.28;2.53;;;13.40;99.90;;;14.33;100.00;-20214.50;5011636;28;20235;-62
2021/12/31 09:21:34;;;;;;;5.07;2.85;;;13.40;99.90;;;14.42;100.00;-20217.75;5014895;28;20349;-62
2021/12/31 09:24:01;;;;;;;6.28;3.17;;;13.40;99.90;;;14.40;100.00;-20217.06;5015610;28;20288;-62
2021/12/31 09:26:29;;;;;;;3.45;1.80;;;13.40;99.90;;;14.38;100.00;-20216.19;5014950;28;20226;-63
2021/12/31 09:28:58;;;;;;;2.10;1.58;;;13.40;99.90;;;14.38;100.00;-20216.19;5014935;28;20568;-63
2021/12/31 09:31:26;;;;;;;3.83;2.00;;;13.40;99.90;;;14.58;100.00;-20223.03;5015874;28;20651;-62
2021/12/31 09:33:54;;;;;;;4.38;1.98;;;13.50;99.90;;;14.69;100.00;-20226.78;5015143;28;20249;-65
2021/12/31 09:36:23;;;;;;;6.38;2.38;;;13.60;99.90;;;14.44;100.00;-20218.41;5015483;28;20309;-64
2021/12/31 09:38:51;;;;;;;2.40;1.65;;;13.60;99.90;;;14.43;100.00;-20218.06;5015503;28;20229;-62
2021/12/31 09:41:19;;;;;;;2.75;1.90;;;13.50;99.90;;;14.40;100.00;-20217.06;5015267;28;20342;-61
2021/12/31 09:43:50;;;;;;;3.10;1.98;;;13.50;99.90;;;14.36;100.00;-20215.69;5015356;28;20614;-64
2021/12/31 09:46:19;;;;;;;2.78;2.33;;;13.40;99.90;;;14.43;100.00;-20217.91;5014906;28;20235;-62
2021/12/31 09:48:47;;;;;;;3.50;1.65;;;13.50;99.90;;;14.81;100.00;-20230.69;5015166;28;20321;-62
2021/12/31 09:51:16;;;;;;;2.90;1.80;;;13.70;99.90;;;14.78;100.00;-20229.69;5014845;28;20250;-66
2021/12/31 09:53:45;;;;;;;2.33;1.58;;;13.70;99.90;;;14.64;100.00;-20225.25;5014565;28;20629;-62
2021/12/31 09:56:14;;;;;;;2.17;1.48;;;13.70;99.90;;;14.83;100.00;-20231.38;5010900;28;20215;-61
2021/12/31 09:58:42;;;;;;;2.20;1.40;;;13.80;99.90;;;14.82;100.00;-20231.03;5014115;28;20286;-62
2021/12/31 10:01:10;;;;;;;3.72;1.60;;;13.90;99.90;;;14.74;100.00;-20228.31;5013205;28;20246;-63
2021/12/31 10:03:39;;;;;;;1.73;1.45;;;13.90;99.90;;;14.75;100.00;-20228.66;5013986;28;20864;-62
2021/12/31 10:06:09;;;;;;;2.97;1.98;;;13.90;99.90;;;14.92;100.00;-20234.44;5014167;28;20233;-62
2021/12/31 10:08:43;;;;;;;1.83;1.63;;;14.00;99.90;;;15.00;100.00;-20237.19;5013896;28;20249;-62
2021/12/31 10:11:17;;;;;;;1.42;1.30;;;14.00;99.90;;;15.21;100.00;-20244.53;5011095;28;20223;-63
2021/12/31 10:13:55;;;;;;;3.53;1.35;;;14.20;99.90;;;15.31;100.00;-20247.94;5013667;28;20958;-62